Time;durP1;ratioP1;P1;durP2;ratioP2;P2;SDS_P1;SDS_P2;PMS_P1;PMS_P2;Temp;Humidity;BMP_temperature;BMP_pressure;BME280_temperature;BME280_humidity;BME280_pressure;Samples;Min_cycle;Max_cycle;Signal;HPM_P1;HPM_P2
2021/12/02 00:02:06;;;;;;;2.25;0.40;;;6.90;99.90;;;;;;4967139;28;20047;-78
2021/12/02 00:04:33;;;;;;;1.27;0.40;;;6.90;99.90;;;;;;4960317;29;20026;-76
2021/12/02 00:06:59;;;;;;;2.78;0.50;;;6.80;99.90;;;;;;4959745;29;20027;-76
2021/12/02 00:09:25;;;;;;;0.85;0.35;;;6.70;99.90;;;;;;4959743;28;20335;-77
2021/12/02 00:11:51;;;;;;;3.72;0.50;;;6.70;99.90;;;;;;4970497;28;20276;-78
2021/12/02 00:14:23;;;;;;;0.95;0.30;;;6.70;99.90;;;;;;4961898;29;20027;-77
2021/12/02 00:17:25;;;;;;;1.67;0.30;;;6.60;99.90;;;;;;4965543;28;20309;-74
2021/12/02 00:22:28;;;;;;;1.20;0.50;;;6.40;99.90;;;;;;4965889;29;20305;-76
2021/12/02 00:25:01;;;;;;;1.63;0.40;;;6.40;99.90;;;;;;4960582;28;20031;-77
2021/12/02 00:27:29;;;;;;;2.55;0.35;;;6.30;99.90;;;;;;4970463;28;20042;-75
2021/12/02 00:29:57;;;;;;;0.73;0.28;;;6.40;99.90;;;;;;5052683;28;20037;-78
2021/12/02 00:32:27;;;;;;;2.28;0.63;;;6.30;99.90;;;;;;5036754;28;20093;-77
2021/12/02 00:34:54;;;;;;;1.67;0.40;;;6.30;99.90;;;;;;4963504;28;20047;-76
2021/12/02 00:37:21;;;;;;;2.03;0.30;;;6.30;99.90;;;;;;4975791;28;20204;-75
2021/12/02 00:39:47;;;;;;;2.30;1.10;;;6.30;99.90;;;;;;4983273;28;20317;-77
2021/12/02 00:42:14;;;;;;;1.05;0.38;;;6.30;99.90;;;;;;4955546;28;20050;-78
2021/12/02 00:44:40;;;;;;;1.67;0.40;;;6.20;99.90;;;;;;4964407;28;20073;-76
2021/12/02 00:47:08;;;;;;;1.90;0.50;;;6.10;99.90;;;;;;4963015;28;20051;-77
2021/12/02 00:49:34;;;;;;;1.85;0.40;;;6.10;99.90;;;;;;4962944;29;20114;-77
2021/12/02 00:52:00;;;;;;;2.05;0.60;;;6.00;99.90;;;;;;4972688;28;20058;-77
2021/12/02 00:54:27;;;;;;;1.58;0.43;;;6.00;99.90;;;;;;4970579;28;20039;-77
2021/12/02 00:56:54;;;;;;;1.10;0.40;;;5.90;99.90;;;;;;4963358;28;20031;-78
2021/12/02 00:59:21;;;;;;;2.92;0.40;;;5.80;99.90;;;;;;4962747;29;20043;-76
2021/12/02 01:01:49;;;;;;;2.60;0.50;;;5.80;99.90;;;;;;4962801;28;20032;-76
2021/12/02 01:04:22;;;;;;;2.33;0.50;;;5.70;99.90;;;;;;4963270;28;20023;-76
2021/12/02 01:06:48;;;;;;;2.72;0.40;;;5.70;99.90;;;;;;4962158;29;20028;-76
2021/12/02 01:09:14;;;;;;;1.58;0.40;;;5.80;99.90;;;;;;4963420;28;20042;-77
2021/12/02 01:11:40;;;;;;;2.20;0.50;;;5.70;99.90;;;;;;4963035;28;20344;-76
2021/12/02 01:14:10;;;;;;;2.72;0.70;;;5.70;99.90;;;;;;4963035;28;20328;-77
2021/12/02 01:16:36;;;;;;;1.48;0.30;;;5.80;99.90;;;;;;4962743;28;20277;-77
2021/12/02 01:19:06;;;;;;;3.30;0.85;;;5.70;99.90;;;;;;4962462;29;20043;-77
2021/12/02 01:25:20;;;;;;;1.98;0.50;;;5.80;99.90;;;;;;4956697;28;20050;-76
2021/12/02 01:27:48;;;;;;;1.02;0.38;;;5.80;99.90;;;;;;4962847;28;20073;-77
2021/12/02 01:30:14;;;;;;;2.72;1.05;;;5.80;99.90;;;;;;4962518;28;20266;-76
2021/12/02 01:32:40;;;;;;;1.83;0.40;;;5.90;99.90;;;;;;4977437;28;20032;-75
2021/12/02 01:35:07;;;;;;;2.17;0.52;;;5.90;99.90;;;;;;4963242;28;20027;-77
2021/12/02 01:37:33;;;;;;;1.98;0.40;;;5.90;99.90;;;;;;4980149;28;20225;-78
2021/12/02 01:40:01;;;;;;;3.05;0.63;;;6.00;99.90;;;;;;4982584;28;20189;-77
2021/12/02 01:42:28;;;;;;;2.95;0.55;;;6.00;99.90;;;;;;4984029;28;20015;-77
2021/12/02 01:44:57;;;;;;;2.00;0.40;;;6.00;99.90;;;;;;5063185;28;20298;-76
2021/12/02 01:47:25;;;;;;;2.00;0.50;;;6.00;99.90;;;;;;5063218;28;20048;-76
2021/12/02 01:49:57;;;;;;;2.35;0.40;;;6.00;99.90;;;;;;5062539;28;20029;-75
2021/12/02 01:52:30;;;;;;;2.20;0.38;;;6.00;99.90;;;;;;5063586;28;20036;-76
2021/12/02 01:55:13;;;;;;;2.47;0.50;;;6.00;99.90;;;;;;5064260;28;20100;-75
2021/12/02 01:57:41;;;;;;;1.38;0.40;;;6.00;99.90;;;;;;5045231;28;20041;-75
2021/12/02 02:00:21;;;;;;;2.75;0.50;;;6.00;99.90;;;;;;5062232;28;20044;-75
2021/12/02 02:02:48;;;;;;;1.67;0.40;;;6.00;99.90;;;;;;5046100;28;20332;-76
2021/12/02 02:05:16;;;;;;;1.75;0.50;;;6.00;99.90;;;;;;5063577;28;20258;-75
2021/12/02 02:07:54;;;;;;;2.25;0.60;;;6.00;99.90;;;;;;5061823;28;20048;-74
2021/12/02 02:10:21;;;;;;;2.30;0.47;;;6.00;99.90;;;;;;5063742;28;20037;-77
2021/12/02 02:12:47;;;;;;;1.70;0.40;;;5.90;99.90;;;;;;5006215;28;20236;-76
2021/12/02 02:15:13;;;;;;;4.78;0.40;;;5.60;99.90;;;;;;4982021;28;20015;-76
2021/12/02 02:17:54;;;;;;;4.72;0.60;;;5.60;99.90;;;;;;4981204;28;20039;-75
2021/12/02 02:20:51;;;;;;;2.38;0.32;;;5.50;99.90;;;;;;5014410;28;20049;-76
2021/12/02 02:23:16;;;;;;;2.90;0.50;;;5.40;99.90;;;;;;5062619;28;20029;-75
2021/12/02 02:25:44;;;;;;;2.92;0.47;;;5.40;99.90;;;;;;5062840;28;20203;-77
2021/12/02 02:28:10;;;;;;;3.03;0.32;;;5.30;99.90;;;;;;5062242;28;20071;-76
2021/12/02 02:30:36;;;;;;;1.90;0.32;;;5.30;99.90;;;;;;5062233;28;20319;-76
2021/12/02 02:33:02;;;;;;;2.95;0.40;;;5.30;99.90;;;;;;5018408;28;20038;-77
2021/12/02 02:35:27;;;;;;;2.17;0.32;;;5.20;99.90;;;;;;4980006;28;20106;-79
2021/12/02 02:37:54;;;;;;;2.20;0.30;;;5.20;99.90;;;;;;4980222;28;20061;-75
2021/12/02 02:40:20;;;;;;;1.63;0.40;;;5.20;99.90;;;;;;4981577;28;20098;-77
2021/12/02 02:42:55;;;;;;;1.02;0.22;;;5.20;99.90;;;;;;4979181;28;20031;-76
2021/12/02 02:45:21;;;;;;;2.08;0.30;;;5.20;99.90;;;;;;4980032;28;20312;-76
2021/12/02 02:47:47;;;;;;;3.72;0.40;;;5.10;99.90;;;;;;4980526;28;20037;-77
2021/12/02 02:50:15;;;;;;;2.15;0.28;;;5.00;99.90;;;;;;4980102;28;20035;-76
2021/12/02 02:52:43;;;;;;;2.88;0.40;;;5.00;99.90;;;;;;4980622;28;20025;-76
2021/12/02 02:55:14;;;;;;;1.67;0.40;;;4.90;99.90;;;;;;4980937;28;20228;-77
2021/12/02 02:57:47;;;;;;;1.83;0.45;;;4.80;99.90;;;;;;4980347;28;20042;-75
2021/12/02 03:00:18;;;;;;;0.73;0.20;;;4.70;99.90;;;;;;4980939;28;20037;-75
2021/12/02 03:03:01;;;;;;;0.98;0.22;;;4.70;99.90;;;;;;4979731;28;20460;-76
2021/12/02 03:05:43;;;;;;;2.58;0.43;;;4.60;99.90;;;;;;4980485;28;20201;-78
2021/12/02 03:08:16;;;;;;;0.75;0.22;;;4.60;99.90;;;;;;4980150;28;20034;-76
2021/12/02 03:10:47;;;;;;;1.55;0.40;;;4.50;99.90;;;;;;4980685;28;20085;-78
2021/12/02 03:13:29;;;;;;;1.38;0.30;;;4.50;99.90;;;;;;4965144;28;20218;-77
2021/12/02 03:18:40;;;;;;;0.93;0.40;;;4.30;99.90;;;;;;4960812;28;20322;-76
2021/12/02 03:21:19;;;;;;;1.83;0.40;;;4.30;99.90;;;;;;4978046;28;20031;-75
2021/12/02 03:23:53;;;;;;;2.72;0.45;;;4.30;99.90;;;;;;4979152;28;20252;-75
2021/12/02 03:26:20;;;;;;;1.75;0.30;;;4.30;99.90;;;;;;4979821;28;20039;-75
2021/12/02 03:28:50;;;;;;;2.53;0.30;;;4.20;99.90;;;;;;4980158;28;20045;-76
2021/12/02 03:31:17;;;;;;;1.92;0.50;;;4.20;99.90;;;;;;4990722;28;20142;-77
2021/12/02 03:33:46;;;;;;;1.88;0.35;;;4.20;99.90;;;;;;4975880;28;20038;-77
2021/12/02 03:36:13;;;;;;;1.58;0.40;;;4.30;99.90;;;;;;4965486;28;20039;-78
2021/12/02 03:38:39;;;;;;;1.60;0.32;;;4.30;99.90;;;;;;4959909;29;20043;-77
2021/12/02 03:41:05;;;;;;;2.28;0.35;;;4.30;99.90;;;;;;4960482;29;20058;-77
2021/12/02 03:43:37;;;;;;;1.00;0.30;;;4.30;99.90;;;;;;4959997;28;20038;-76
2021/12/02 03:46:04;;;;;;;3.47;0.40;;;4.20;99.90;;;;;;4961340;28;20050;-76
2021/12/02 03:48:31;;;;;;;1.77;0.32;;;4.30;99.90;;;;;;4959805;29;20038;-80
2021/12/02 03:50:59;;;;;;;3.05;0.28;;;4.30;99.90;;;;;;4961099;28;20342;-76
2021/12/02 03:53:24;;;;;;;2.08;0.38;;;4.30;99.90;;;;;;4960128;29;20023;-77
2021/12/02 03:55:50;;;;;;;1.10;0.40;;;4.30;99.90;;;;;;4959499;29;20031;-76
2021/12/02 03:58:16;;;;;;;2.03;0.50;;;4.30;99.90;;;;;;4959967;29;20036;-75
2021/12/02 04:00:42;;;;;;;1.10;0.30;;;4.30;99.90;;;;;;4961515;29;20297;-77
2021/12/02 04:03:08;;;;;;;2.75;0.40;;;4.40;99.90;;;;;;4963193;29;20058;-77
2021/12/02 04:05:34;;;;;;;1.63;0.35;;;4.40;99.90;;;;;;4964254;28;20105;-76
2021/12/02 04:07:59;;;;;;;1.05;0.30;;;4.40;99.90;;;;;;4964386;28;20260;-77
2021/12/02 04:10:26;;;;;;;4.03;0.98;;;4.40;99.90;;;;;;4947336;28;20071;-76
2021/12/02 04:13:04;;;;;;;2.40;0.60;;;4.50;99.90;;;;;;4969416;28;20084;-77
2021/12/02 04:15:33;;;;;;;4.38;0.60;;;4.50;99.90;;;;;;4966013;28;20332;-76
2021/12/02 04:17:59;;;;;;;3.38;0.45;;;4.50;99.90;;;;;;4983192;28;20237;-76
2021/12/02 04:20:25;;;;;;;1.42;0.60;;;4.60;99.90;;;;;;5035192;28;20021;-76
2021/12/02 04:22:52;;;;;;;1.75;0.40;;;4.70;99.90;;;;;;4998804;28;20023;-76
2021/12/02 04:25:19;;;;;;;2.03;0.30;;;4.70;99.90;;;;;;4983634;28;20019;-76
2021/12/02 04:27:45;;;;;;;1.23;0.35;;;4.60;99.90;;;;;;4981820;28;20027;-76
2021/12/02 04:30:14;;;;;;;0.98;0.32;;;4.70;99.90;;;;;;4983162;28;20027;-78
2021/12/02 04:32:41;;;;;;;1.45;0.40;;;4.60;99.90;;;;;;4981889;28;20194;-76
2021/12/02 04:35:09;;;;;;;2.80;0.30;;;4.70;99.90;;;;;;4982372;28;20031;-77
2021/12/02 04:37:35;;;;;;;2.05;0.50;;;4.70;99.90;;;;;;4981683;28;20068;-77
2021/12/02 04:40:01;;;;;;;1.75;0.20;;;4.80;99.90;;;;;;4983307;28;20244;-77
2021/12/02 04:42:27;;;;;;;2.28;0.30;;;4.80;99.90;;;;;;4981884;28;20153;-77
2021/12/02 04:44:53;;;;;;;2.00;0.40;;;4.80;99.90;;;;;;4965541;28;20026;-78
2021/12/02 04:47:18;;;;;;;2.05;0.38;;;4.80;99.90;;;;;;4982308;28;20050;-79
2021/12/02 04:49:45;;;;;;;1.75;0.70;;;4.80;99.90;;;;;;4981166;28;20083;-78
2021/12/02 04:52:11;;;;;;;1.52;0.40;;;4.80;99.90;;;;;;4981864;28;20030;-77
2021/12/02 04:54:37;;;;;;;1.30;0.30;;;4.90;99.90;;;;;;4982475;28;20343;-77
2021/12/02 04:57:03;;;;;;;2.42;0.65;;;4.80;99.90;;;;;;4982073;28;20034;-77
2021/12/02 04:59:29;;;;;;;1.00;0.30;;;4.90;99.90;;;;;;4983072;28;20043;-77
2021/12/02 05:01:55;;;;;;;1.75;0.40;;;4.90;99.90;;;;;;4965427;28;20278;-77
2021/12/02 05:04:20;;;;;;;1.30;0.30;;;4.90;99.90;;;;;;4983119;28;20352;-79
2021/12/02 05:06:46;;;;;;;2.15;0.68;;;5.00;99.90;;;;;;4980933;28;20019;-77
2021/12/02 05:09:12;;;;;;;2.05;0.38;;;5.00;99.90;;;;;;4983092;28;20039;-79
2021/12/02 05:11:38;;;;;;;1.98;0.57;;;5.00;99.90;;;;;;4964756;28;20068;-76
2021/12/02 05:14:05;;;;;;;2.13;0.32;;;5.00;99.90;;;;;;4979740;28;20385;-78
2021/12/02 05:16:32;;;;;;;2.75;0.50;;;5.00;99.90;;;;;;4996294;28;20028;-78
2021/12/02 05:18:57;;;;;;;1.98;0.40;;;5.10;99.90;;;;;;4995022;28;20087;-77
2021/12/02 05:21:24;;;;;;;2.92;0.30;;;5.00;99.90;;;;;;4981392;28;20122;-77
2021/12/02 05:23:53;;;;;;;2.00;0.60;;;5.10;99.90;;;;;;4981938;28;20026;-76
2021/12/02 05:26:23;;;;;;;4.03;0.50;;;5.10;99.90;;;;;;4981079;28;20027;-77
2021/12/02 05:28:51;;;;;;;2.85;0.60;;;5.20;99.90;;;;;;4981998;28;20035;-78
2021/12/02 05:31:17;;;;;;;3.50;0.82;;;5.10;99.90;;;;;;4981875;28;20050;-77
2021/12/02 05:33:43;;;;;;;5.10;0.82;;;5.20;99.90;;;;;;4980244;28;20042;-79
2021/12/02 05:36:08;;;;;;;1.20;0.40;;;5.10;99.90;;;;;;4981444;28;20038;-78
2021/12/02 05:38:35;;;;;;;1.00;0.40;;;5.10;99.90;;;;;;4980452;28;20030;-78
2021/12/02 05:41:01;;;;;;;1.63;0.35;;;5.00;99.90;;;;;;4981315;28;20035;-78
2021/12/02 05:43:27;;;;;;;1.20;0.30;;;4.90;99.90;;;;;;4961631;28;20023;-76
2021/12/02 05:45:53;;;;;;;2.05;0.70;;;4.80;99.90;;;;;;4962154;28;20065;-78
2021/12/02 05:48:18;;;;;;;2.70;0.50;;;4.80;99.90;;;;;;4963496;28;20027;-77
2021/12/02 05:50:44;;;;;;;3.45;0.60;;;4.70;99.90;;;;;;4962695;28;20031;-79
2021/12/02 05:53:10;;;;;;;2.83;0.70;;;4.60;99.90;;;;;;4946362;29;20023;-79
2021/12/02 05:55:36;;;;;;;2.97;0.70;;;4.60;99.90;;;;;;4962589;29;20359;-76
2021/12/02 05:58:10;;;;;;;3.13;0.50;;;4.60;99.90;;;;;;4963122;28;20096;-76
2021/12/02 06:00:37;;;;;;;1.90;0.65;;;4.70;99.90;;;;;;4981945;28;20194;-78
2021/12/02 06:03:03;;;;;;;2.08;0.55;;;4.70;99.90;;;;;;4967734;28;20184;-82
2021/12/02 06:05:29;;;;;;;2.72;0.50;;;4.80;99.90;;;;;;4961812;29;20297;-76
2021/12/02 06:07:58;;;;;;;1.55;0.40;;;4.90;99.90;;;;;;4961402;29;20090;-78
2021/12/02 06:10:24;;;;;;;2.72;0.70;;;4.80;99.90;;;;;;4979106;28;20098;-78
2021/12/02 06:12:50;;;;;;;3.10;0.52;;;4.90;99.90;;;;;;4966065;28;20028;-78
2021/12/02 06:15:17;;;;;;;1.55;0.73;;;4.90;99.90;;;;;;4960794;28;20057;-76
2021/12/02 06:17:43;;;;;;;1.50;0.40;;;4.80;99.90;;;;;;4980137;28;20260;-81
2021/12/02 06:20:14;;;;;;;2.97;0.60;;;4.80;99.90;;;;;;4964786;28;20019;-76
2021/12/02 06:22:41;;;;;;;3.55;0.60;;;4.80;99.90;;;;;;4980280;28;20438;-78
2021/12/02 06:27:52;;;;;;;1.48;0.38;;;4.70;99.90;;;;;;4980333;28;20038;-77
2021/12/02 06:30:19;;;;;;;1.27;0.43;;;4.70;99.90;;;;;;4980779;28;20031;-76
2021/12/02 06:32:45;;;;;;;1.42;0.50;;;4.70;99.90;;;;;;4972705;28;20024;-77
2021/12/02 06:35:11;;;;;;;1.52;0.50;;;4.70;99.90;;;;;;4963753;28;20360;-77
2021/12/02 06:37:37;;;;;;;3.38;0.73;;;4.60;99.90;;;;;;4975554;28;20026;-77
2021/12/02 06:40:05;;;;;;;1.73;0.40;;;4.50;99.90;;;;;;4968857;28;20073;-76
2021/12/02 06:42:30;;;;;;;1.38;0.40;;;4.50;99.90;;;;;;4961738;28;20035;-75
2021/12/02 06:44:59;;;;;;;1.45;0.20;;;4.30;99.90;;;;;;4981066;28;20038;-76
2021/12/02 06:47:30;;;;;;;;;;;4.10;99.90;;;;;;4992826;28;20042;-74
2021/12/02 06:49:59;;;;;;;1.95;0.40;;;4.00;99.90;;;;;;4991941;28;19913;-74
2021/12/02 06:52:27;;;;;;;2.53;0.45;;;4.00;99.90;;;;;;4972697;28;20025;-76
2021/12/02 06:54:54;;;;;;;1.50;0.50;;;3.90;99.90;;;;;;4963873;28;20026;-77
2021/12/02 06:57:20;;;;;;;1.80;0.50;;;3.90;99.90;;;;;;4981630;28;20018;-75
2021/12/02 06:59:46;;;;;;;1.63;0.50;;;3.90;99.90;;;;;;4980759;28;20068;-77
2021/12/02 07:02:12;;;;;;;2.35;0.50;;;3.90;99.90;;;;;;4980557;28;20084;-76
2021/12/02 07:04:38;;;;;;;2.03;0.60;;;3.90;99.90;;;;;;4959940;28;20027;-75
2021/12/02 07:07:04;;;;;;;2.80;0.47;;;3.80;99.90;;;;;;4963981;28;20229;-77
2021/12/02 07:09:30;;;;;;;1.00;0.30;;;3.90;99.90;;;;;;4960398;28;20059;-76
2021/12/02 07:11:56;;;;;;;1.27;0.30;;;3.80;99.90;;;;;;4979483;28;20073;-76
2021/12/02 07:14:24;;;;;;;1.45;0.40;;;3.70;99.90;;;;;;4972509;28;20336;-78
2021/12/02 07:16:50;;;;;;;2.20;0.65;;;3.70;99.90;;;;;;4979195;28;20083;-76
2021/12/02 07:19:16;;;;;;;1.48;0.60;;;3.70;99.90;;;;;;4980914;28;20042;-76
2021/12/02 07:21:42;;;;;;;1.40;0.50;;;3.60;99.90;;;;;;4979627;28;20027;-77
2021/12/02 07:24:15;;;;;;;4.60;1.15;;;3.50;99.90;;;;;;4981440;28;20079;-76
2021/12/02 07:26:42;;;;;;;2.28;0.90;;;3.40;99.90;;;;;;4980282;28;20031;-77
2021/12/02 07:29:10;;;;;;;2.28;1.00;;;3.50;99.90;;;;;;4981033;28;20023;-77
2021/12/02 07:31:37;;;;;;;3.00;0.80;;;3.50;99.90;;;;;;4979719;28;20058;-77
2021/12/02 07:34:04;;;;;;;2.58;0.90;;;3.50;99.90;;;;;;4980084;28;20105;-76
2021/12/02 07:36:31;;;;;;;2.65;0.63;;;3.60;99.90;;;;;;4979841;28;20026;-76
2021/12/02 07:39:00;;;;;;;3.88;0.60;;;3.70;99.90;;;;;;4980450;28;20080;-77
2021/12/02 07:41:26;;;;;;;2.72;0.60;;;3.80;99.90;;;;;;4962432;28;20262;-76
2021/12/02 07:43:52;;;;;;;3.05;0.60;;;3.90;99.90;;;;;;4969764;28;20261;-77
2021/12/02 07:46:18;;;;;;;1.98;0.68;;;4.10;99.90;;;;;;4960726;28;20062;-76
2021/12/02 07:48:44;;;;;;;1.92;0.50;;;4.10;99.90;;;;;;4974868;28;20058;-75
2021/12/02 07:51:15;;;;;;;1.98;0.38;;;4.20;99.90;;;;;;4968759;28;20042;-78
2021/12/02 07:53:44;;;;;;;1.85;0.57;;;4.20;99.90;;;;;;4980362;28;20034;-80
2021/12/02 07:56:11;;;;;;;;;;;4.10;99.90;;;;;;4981081;28;20341;-78
2021/12/02 07:58:41;;;;;;;2.13;0.50;;;4.20;99.90;;;;;;4967974;28;19914;-80
2021/12/02 08:01:07;;;;;;;2.15;0.63;;;4.20;99.90;;;;;;4979950;28;20062;-78
2021/12/02 08:03:33;;;;;;;1.02;0.40;;;4.20;99.90;;;;;;4952772;29;20074;-78
2021/12/02 08:05:59;;;;;;;1.50;0.50;;;4.30;99.90;;;;;;4923690;29;20379;-79
2021/12/02 08:08:25;;;;;;;1.50;0.65;;;4.40;99.90;;;;;;4942820;29;20052;-78
2021/12/02 08:10:52;;;;;;;4.20;0.65;;;4.50;99.90;;;;;;4957603;28;20070;-80
2021/12/02 08:13:19;;;;;;;1.33;0.50;;;4.50;99.90;;;;;;4953611;29;20052;-77
2021/12/02 08:15:45;;;;;;;3.10;0.60;;;4.70;99.90;;;;;;4938158;29;20091;-77
2021/12/02 08:18:11;;;;;;;3.03;0.70;;;4.60;99.90;;;;;;4935252;29;20050;-78
2021/12/02 08:20:37;;;;;;;3.80;0.70;;;4.60;99.90;;;;;;4958891;29;20043;-78
2021/12/02 08:23:04;;;;;;;3.53;0.70;;;4.60;99.90;;;;;;4958475;29;20337;-76
2021/12/02 08:25:31;;;;;;;2.15;0.70;;;4.60;99.90;;;;;;4939797;29;20044;-76
2021/12/02 08:28:00;;;;;;;2.35;0.70;;;4.80;99.90;;;;;;4956257;29;20027;-76
2021/12/02 08:30:27;;;;;;;2.42;0.73;;;4.80;99.90;;;;;;4942208;28;20111;-77
2021/12/02 08:32:54;;;;;;;1.60;0.60;;;4.90;99.90;;;;;;4942808;29;20046;-79
2021/12/02 08:35:21;;;;;;;4.47;0.90;;;5.00;99.90;;;;;;4973831;28;20043;-77
2021/12/02 08:37:49;;;;;;;2.45;0.80;;;5.10;99.90;;;;;;4979504;28;20110;-77
2021/12/02 08:40:18;;;;;;;1.63;0.60;;;5.20;99.90;;;;;;4980258;28;20015;-77
2021/12/02 08:42:46;;;;;;;1.92;0.50;;;5.30;99.90;;;;;;4979853;28;20606;-77
2021/12/02 08:45:13;;;;;;;1.80;0.60;;;5.30;99.90;;;;;;4961924;28;20027;-77
2021/12/02 08:47:45;;;;;;;3.95;0.90;;;5.40;99.90;;;;;;4960991;29;20309;-75
2021/12/02 08:50:14;;;;;;;1.63;0.60;;;5.50;99.90;;;;;;4963657;28;20042;-75
2021/12/02 08:52:40;;;;;;;1.98;0.73;;;5.50;99.90;;;;;;4962593;28;20040;-75
2021/12/02 08:55:07;;;;;;;2.95;0.75;;;5.40;99.90;;;;;;4962438;29;20038;-75
2021/12/02 08:57:33;;;;;;;1.95;0.50;;;5.30;99.90;;;;;;4949126;28;20262;-75
2021/12/02 08:59:58;;;;;;;1.88;0.80;;;5.40;99.90;;;;;;4982795;28;20037;-77
2021/12/02 09:02:24;;;;;;;2.10;0.85;;;5.50;99.90;;;;;;4982396;28;20092;-77
2021/12/02 09:04:50;;;;;;;1.40;0.60;;;5.50;99.90;;;;;;4981379;28;20042;-75
2021/12/02 09:07:16;;;;;;;2.35;0.80;;;5.50;99.90;;;;;;4982092;28;20047;-75
2021/12/02 09:09:42;;;;;;;1.73;0.70;;;5.60;99.90;;;;;;4983069;28;20101;-75
2021/12/02 09:12:09;;;;;;;2.17;0.70;;;5.80;99.90;;;;;;4982330;28;20035;-75
2021/12/02 09:14:36;;;;;;;1.70;0.73;;;5.90;99.90;;;;;;4979736;28;20038;-76
2021/12/02 09:17:03;;;;;;;1.70;0.60;;;6.00;99.90;;;;;;4980470;28;20046;-76
2021/12/02 09:19:29;;;;;;;1.85;0.60;;;6.20;99.90;;;;;;4981748;28;20038;-78
2021/12/02 09:21:54;;;;;;;2.65;0.85;;;6.20;99.90;;;;;;4982570;28;20057;-77
2021/12/02 09:24:20;;;;;;;2.70;0.70;;;6.10;99.90;;;;;;4982686;28;20081;-76
2021/12/02 09:26:48;;;;;;;2.00;0.70;;;6.20;99.90;;;;;;4981499;28;20567;-76
2021/12/02 09:29:16;;;;;;;2.58;0.70;;;6.50;99.90;;;;;;4982834;28;20076;-75
2021/12/02 09:31:43;;;;;;;1.55;0.57;;;6.50;99.90;;;;;;4981673;28;20069;-74
2021/12/02 09:34:09;;;;;;;3.83;0.60;;;6.60;99.90;;;;;;4982403;28;20031;-77
2021/12/02 09:36:35;;;;;;;1.80;0.60;;;6.80;99.90;;;;;;4982331;28;20324;-77
2021/12/02 09:39:02;;;;;;;1.70;0.50;;;6.80;99.90;;;;;;4982268;28;20045;-77
2021/12/02 09:41:28;;;;;;;2.45;0.50;;;6.70;99.90;;;;;;4981319;28;20253;-77
2021/12/02 09:43:54;;;;;;;1.55;0.60;;;6.60;99.90;;;;;;4976982;28;20034;-77
2021/12/02 09:46:20;;;;;;;1.55;0.50;;;6.70;99.90;;;;;;4962328;28;20039;-76
2021/12/02 09:48:47;;;;;;;1.95;0.50;;;6.50;99.90;;;;;;4963365;28;20073;-75
2021/12/02 09:51:21;;;;;;;2.42;0.65;;;6.40;99.90;;;;;;4962388;28;20054;-77
2021/12/02 09:53:53;;;;;;;2.85;0.73;;;6.40;99.90;;;;;;4980890;28;20039;-76
2021/12/02 09:56:26;;;;;;;3.42;0.82;;;6.30;99.90;;;;;;4981064;28;20038;-77
2021/12/02 09:58:56;;;;;;;1.88;0.85;;;6.10;99.90;;;;;;4980387;28;20220;-79
2021/12/02 10:01:35;;;;;;;2.70;0.82;;;6.00;99.90;;;;;;4980442;28;20038;-76
2021/12/02 10:04:02;;;;;;;4.03;1.05;;;5.90;99.90;;;;;;4980574;28;20031;-77
2021/12/02 10:06:32;;;;;;;3.28;0.98;;;5.70;99.90;;;;;;4981093;28;20019;-77
2021/12/02 10:09:13;;;;;;;4.50;1.45;;;5.50;99.90;;;;;;4979199;28;20031;-76
2021/12/02 10:11:53;;;;;;;2.28;0.82;;;5.30;99.90;;;;;;4976431;28;20035;-76
2021/12/02 10:14:45;;;;;;;2.08;0.70;;;4.80;99.90;;;;;;4985328;28;20030;-75
2021/12/02 10:17:20;;;;;;;1.33;0.40;;;4.40;99.90;;;;;;4992027;28;20053;-75
2021/12/02 10:25:50;;;;;;;2.33;0.40;;;3.80;99.90;;;;;;4972155;28;20319;-76
2021/12/02 10:28:18;;;;;;;1.75;0.50;;;3.80;99.90;;;;;;4961547;29;20268;-76
2021/12/02 10:30:47;;;;;;;;;;;3.70;99.90;;;;;;4962225;28;20070;-78
2021/12/02 10:33:13;;;;;;;1.75;0.60;;;3.70;99.90;;;;;;4962686;28;20175;-75
2021/12/02 10:35:43;;;;;;;2.67;0.60;;;3.70;99.90;;;;;;4962728;28;20137;-77
2021/12/02 10:38:54;;;;;;;1.33;0.60;;;3.70;99.90;;;;;;4975119;28;20042;-76
2021/12/02 10:41:24;;;;;;;1.90;0.57;;;3.70;99.90;;;;;;4982263;28;20058;-76
2021/12/02 10:44:14;;;;;;;1.63;0.68;;;3.80;99.90;;;;;;4979899;28;20050;-78
2021/12/02 10:46:52;;;;;;;1.55;0.60;;;4.00;99.90;;;;;;4979931;28;20058;-76
2021/12/02 10:49:20;;;;;;;1.85;0.77;;;4.20;99.90;;;;;;4966820;28;20037;-76
2021/12/02 10:51:52;;;;;;;4.28;1.63;;;4.20;99.90;;;;;;4980191;28;20038;-78
2021/12/02 10:54:34;;;;;;;1.35;0.60;;;4.30;99.90;;;;;;4977376;28;20039;-77
2021/12/02 10:57:13;;;;;;;1.40;0.60;;;4.40;99.90;;;;;;4973524;28;20034;-77
2021/12/02 10:59:50;;;;;;;1.88;0.70;;;4.40;99.90;;;;;;4980310;28;20046;-77
2021/12/02 11:02:29;;;;;;;2.60;0.70;;;4.40;99.90;;;;;;4979844;28;20034;-77
2021/12/02 11:05:04;;;;;;;1.33;0.50;;;4.30;99.90;;;;;;4980995;28;20030;-77
2021/12/02 11:07:33;;;;;;;1.60;0.60;;;4.30;99.90;;;;;;4981057;28;20031;-78
2021/12/02 11:10:04;;;;;;;2.25;0.50;;;4.40;99.90;;;;;;4979999;28;20030;-77
2021/12/02 11:12:35;;;;;;;1.20;0.40;;;4.40;99.90;;;;;;4979783;28;20035;-78
2021/12/02 11:15:08;;;;;;;2.05;0.55;;;4.30;99.90;;;;;;4970264;28;20035;-77
2021/12/02 11:18:04;;;;;;;2.47;0.82;;;4.20;99.90;;;;;;4961499;28;20043;-78
2021/12/02 11:20:34;;;;;;;2.10;0.70;;;4.20;99.90;;;;;;4973844;28;20073;-76
2021/12/02 11:23:09;;;;;;;1.45;0.55;;;4.10;99.90;;;;;;4961133;28;20043;-78
2021/12/02 11:25:38;;;;;;;2.83;0.52;;;4.10;99.90;;;;;;4967623;28;20341;-77
2021/12/02 11:28:08;;;;;;;3.33;0.50;;;4.10;99.90;;;;;;4962180;28;20053;-77
2021/12/02 11:30:37;;;;;;;2.88;0.80;;;4.20;99.90;;;;;;4959653;28;20059;-78
2021/12/02 11:33:06;;;;;;;3.10;0.88;;;4.20;99.90;;;;;;4961148;29;20034;-78
2021/12/02 11:35:35;;;;;;;3.42;0.80;;;4.20;99.90;;;;;;4960823;29;20031;-78
2021/12/02 11:38:26;;;;;;;;;;;4.30;99.90;;;;;;4980567;28;20248;-77
2021/12/02 11:40:54;;;;;;;2.45;0.60;;;4.40;99.90;;;;;;4979722;28;19973;-77
2021/12/02 11:43:24;;;;;;;2.70;0.90;;;4.50;99.90;;;;;;4979759;28;20034;-77
2021/12/02 11:45:52;;;;;;;2.28;0.60;;;4.50;99.90;;;;;;4977236;28;20360;-77
2021/12/02 11:48:20;;;;;;;1.92;0.82;;;4.60;99.90;;;;;;4978835;28;20182;-77
2021/12/02 11:50:48;;;;;;;1.27;0.55;;;4.50;99.90;;;;;;4979336;28;20034;-77
2021/12/02 11:53:20;;;;;;;3.17;0.90;;;4.60;99.90;;;;;;4963429;28;20042;-75
2021/12/02 11:55:47;;;;;;;2.03;0.60;;;4.70;99.90;;;;;;4960135;29;20315;-77
2021/12/02 11:58:13;;;;;;;1.17;0.50;;;4.80;99.90;;;;;;4960347;28;20074;-74
2021/12/02 12:00:39;;;;;;;2.85;1.00;;;4.70;99.90;;;;;;4960623;28;20048;-75
2021/12/02 12:03:19;;;;;;;3.30;0.90;;;4.70;99.90;;;;;;4960677;28;20068;-75
2021/12/02 12:06:08;;;;;;;2.30;0.70;;;4.90;99.90;;;;;;4960693;29;20348;-76
2021/12/02 12:08:53;;;;;;;3.50;0.82;;;5.00;99.90;;;;;;4960977;29;20213;-76
2021/12/02 12:11:44;;;;;;;2.00;0.70;;;5.10;99.90;;;;;;4961268;29;20146;-77
2021/12/02 12:14:37;;;;;;;2.65;0.77;;;5.00;99.90;;;;;;4970374;28;20084;-75
2021/12/02 12:17:38;;;;;;;1.58;0.80;;;5.10;99.90;;;;;;4973393;28;20042;-77
2021/12/02 12:21:02;;;;;;;1.83;0.70;;;5.10;99.90;;;;;;4979951;28;20070;-76
2021/12/02 12:23:59;;;;;;;2.10;0.75;;;5.00;99.90;;;;;;4983616;28;20049;-77
2021/12/02 12:26:46;;;;;;;2.00;0.70;;;5.00;99.90;;;;;;4963211;29;20336;-77
2021/12/02 12:29:31;;;;;;;2.08;0.70;;;5.10;99.90;;;;;;4964269;29;20236;-77
2021/12/02 12:37:23;;;;;;;3.83;0.80;;;5.10;99.90;;;;;;4977171;28;20682;-76
2021/12/02 12:40:09;;;;;;;2.50;0.80;;;5.10;99.90;;;;;;4958067;28;20077;-75
2021/12/02 12:42:44;;;;;;;3.20;1.10;;;5.10;99.90;;;;;;4982804;28;20054;-77
2021/12/02 12:45:21;;;;;;;4.13;0.90;;;5.20;99.90;;;;;;4973044;28;20038;-77
2021/12/02 12:47:49;;;;;;;1.77;0.90;;;5.30;99.90;;;;;;4963637;28;20310;-77
2021/12/02 12:50:21;;;;;;;2.90;1.33;;;5.30;99.90;;;;;;4966355;28;20268;-77
2021/12/02 12:53:16;;;;;;;2.10;0.90;;;5.30;99.90;;;;;;4968369;28;20333;-77
2021/12/02 12:56:09;;;;;;;2.53;1.00;;;5.30;99.90;;;;;;4962386;28;20344;-76
2021/12/02 12:58:56;;;;;;;3.55;0.80;;;5.30;99.90;;;;;;4982670;28;20392;-77
2021/12/02 13:01:25;;;;;;;2.72;1.25;;;5.30;99.90;;;;;;4982270;28;20053;-76
2021/12/02 13:04:13;;;;;;;2.58;1.33;;;5.40;99.90;;;;;;4982813;28;20039;-78
2021/12/02 13:06:52;;;;;;;2.53;1.00;;;5.60;99.90;;;;;;4983101;28;20327;-77
2021/12/02 13:09:41;;;;;;;2.65;1.30;;;5.70;99.90;;;;;;4982183;28;20099;-77
2021/12/02 13:12:11;;;;;;;1.95;0.88;;;5.90;99.90;;;;;;4981324;28;20317;-78
2021/12/02 13:14:38;;;;;;;3.10;1.10;;;6.00;99.90;;;;;;4979948;28;20042;-78
2021/12/02 13:17:41;;;;;;;1.90;1.00;;;6.10;99.90;;;;;;4962457;28;20047;-75
2021/12/02 13:20:37;;;;;;;2.45;1.10;;;6.00;99.90;;;;;;4962610;28;20077;-77
2021/12/02 13:23:12;;;;;;;2.88;0.95;;;6.10;99.90;;;;;;4961199;29;20058;-77
2021/12/02 13:25:46;;;;;;;2.17;1.00;;;6.10;99.90;;;;;;4963163;28;20042;-78
2021/12/02 13:28:13;;;;;;;2.17;0.93;;;5.80;99.90;;;;;;4962741;28;20201;-77
2021/12/02 13:30:39;;;;;;;2.50;1.10;;;5.90;99.90;;;;;;4961202;28;20134;-77
2021/12/02 13:33:05;;;;;;;2.78;1.08;;;6.00;99.90;;;;;;4973368;28;20129;-76
2021/12/02 13:35:31;;;;;;;3.25;0.77;;;5.90;99.90;;;;;;4982291;28;20061;-75
2021/12/02 13:38:04;;;;;;;2.97;1.08;;;5.90;99.90;;;;;;4982513;28;20047;-76